Time;durP1;ratioP1;P1;durP2;ratioP2;P2;SDS_P1;SDS_P2;PMS_P1;PMS_P2;Temp;Humidity;BMP_temperature;BMP_pressure;BME280_temperature;BME280_humidity;BME280_pressure;Samples;Min_cycle;Max_cycle;Signal;HPM_P1;HPM_P2
2022/12/05 00:00:07;;;;;;;3.30;2.40;;;;;;;20.87;47.93;95697.91;5068790;28;20051;-60
2022/12/05 00:02:33;;;;;;;4.05;2.50;;;;;;;21.50;47.68;95792.72;5082665;28;20040;-60
2022/12/05 00:04:58;;;;;;;3.53;2.35;;;;;;;21.58;47.63;95804.66;5072117;28;20031;-61
2022/12/05 00:07:23;;;;;;;3.38;2.60;;;;;;;21.45;47.60;95796.09;5071722;28;20027;-60
2022/12/05 00:09:49;;;;;;;3.67;2.50;;;;;;;21.04;47.61;95729.44;5066243;28;20044;-59
2022/12/05 00:12:15;;;;;;;4.15;2.85;;;;;;;21.51;48.04;95810.53;5071634;28;20496;-60
2022/12/05 00:14:40;;;;;;;3.53;2.30;;;;;;;21.41;47.22;95789.38;5056496;28;20044;-59
2022/12/05 00:17:06;;;;;;;4.05;2.83;;;;;;;21.55;47.44;95827.34;5059822;28;20487;-60
2022/12/05 00:19:31;;;;;;;4.35;2.95;;;;;;;21.54;47.90;95815.75;5071733;28;20024;-60
2022/12/05 00:21:56;;;;;;;3.90;2.53;;;;;;;21.33;47.08;95780.13;5067397;28;20043;-60
2022/12/05 00:24:22;;;;;;;3.42;2.33;;;;;;;21.44;47.64;95805.47;5097404;28;20043;-61
2022/12/05 00:26:47;;;;;;;3.85;2.25;;;;;;;21.51;47.40;95821.41;5045201;28;20118;-60
2022/12/05 00:29:13;;;;;;;3.30;2.80;;;;;;;21.50;47.59;95819.91;5079364;28;20028;-60
2022/12/05 00:31:38;;;;;;;3.88;2.50;;;;;;;21.50;47.77;95825.34;5061397;28;20028;-60
2022/12/05 00:34:04;;;;;;;3.97;2.58;;;;;;;21.19;47.22;95779.00;5082579;28;20062;-59
2022/12/05 00:36:31;;;;;;;3.78;2.40;;;;;;;20.77;47.44;95714.81;5088246;28;20044;-60
2022/12/05 00:38:58;;;;;;;3.17;2.30;;;;;;;21.49;47.74;95834.69;5068568;28;20485;-61
2022/12/05 00:41:24;;;;;;;3.70;2.22;;;;;;;20.18;46.93;95637.56;5052189;28;20032;-60
2022/12/05 00:43:50;;;;;;;3.75;2.50;;;;;;;21.48;47.25;95828.53;5089180;28;20035;-60
2022/12/05 00:46:20;;;;;;;3.65;2.40;;;;;;;21.43;47.49;95825.72;5068346;28;20093;-60
2022/12/05 00:48:46;;;;;;;3.47;2.30;;;;;;;21.48;47.44;95849.53;5100502;28;20040;-60
2022/12/05 00:51:19;;;;;;;2.92;2.35;;;;;;;21.40;47.31;95823.94;5068447;28;20109;-61
2022/12/05 00:53:45;;;;;;;4.05;2.40;;;;;;;21.28;47.41;95803.31;5055029;28;20108;-59
2022/12/05 00:56:13;;;;;;;3.65;2.70;;;;;;;21.47;47.37;95818.13;5069225;28;20451;-61
2022/12/05 00:58:38;;;;;;;3.33;2.30;;;;;;;20.74;47.25;95704.91;5099469;28;20028;-59
2022/12/05 01:01:16;;;;;;;3.15;2.40;;;;;;;21.39;47.28;95819.75;5088494;28;20408;-59
2022/12/05 01:03:42;;;;;;;3.47;2.35;;;;;;;21.43;47.33;95804.75;5060835;28;20389;-61
2022/12/05 01:06:08;;;;;;;3.13;2.40;;;;;;;19.98;47.49;95589.97;5101029;28;20141;-60
2022/12/05 01:08:34;;;;;;;3.72;2.58;;;;;;;21.42;47.16;95813.38;5063896;28;20442;-60
2022/12/05 01:10:59;;;;;;;3.17;2.28;;;;;;;21.32;47.12;95787.56;5064559;28;20063;-59
2022/12/05 01:13:25;;;;;;;3.75;2.40;;;;;;;21.31;47.57;95796.91;5101482;28;20028;-59
2022/12/05 01:15:50;;;;;;;3.53;2.53;;;;;;;21.07;47.29;95755.63;5067447;28;20484;-61
2022/12/05 01:18:17;;;;;;;3.75;2.40;;;;;;;21.43;47.26;95803.97;5086395;28;20614;-60
2022/12/05 01:20:42;;;;;;;3.55;2.17;;;;;;;21.40;47.50;95804.94;5052635;28;20040;-63
2022/12/05 01:23:08;;;;;;;3.05;2.22;;;;;;;21.40;47.68;95802.22;5086397;28;20630;-60
2022/12/05 01:25:33;;;;;;;3.03;2.30;;;;;;;21.20;47.05;95775.06;5054611;28;20024;-61
2022/12/05 01:27:59;;;;;;;3.85;2.67;;;;;;;21.41;47.26;95800.25;5067719;28;20123;-61
2022/12/05 01:30:24;;;;;;;3.60;2.50;;;;;;;21.03;47.01;95744.25;5059349;28;20094;-61
2022/12/05 01:32:50;;;;;;;3.22;2.25;;;;;;;21.38;47.32;95796.50;5051847;28;20057;-60
2022/12/05 01:35:15;;;;;;;3.47;2.33;;;;;;;21.26;47.38;95773.16;5068585;28;20080;-61
2022/12/05 01:37:41;;;;;;;3.35;2.30;;;;;;;21.37;47.47;95789.56;5077646;28;20032;-62
2022/12/05 01:40:07;;;;;;;3.03;2.35;;;;;;;21.27;47.03;95763.78;5066501;28;20035;-62
2022/12/05 01:42:32;;;;;;;3.83;2.50;;;;;;;21.38;47.03;95774.03;5062863;28;20036;-60
2022/12/05 01:45:01;;;;;;;3.50;2.30;;;;;;;21.34;47.55;95774.22;5079528;28;20044;-60
2022/12/05 01:47:27;;;;;;;3.58;2.50;;;;;;;21.28;47.22;95765.28;5098995;28;20066;-60
2022/12/05 01:49:53;;;;;;;3.85;2.47;;;;;;;21.35;47.18;95775.72;5067505;28;20051;-62
2022/12/05 01:52:20;;;;;;;3.40;2.33;;;;;;;21.34;46.97;95812.25;5062358;28;20403;-61
2022/12/05 01:54:46;;;;;;;2.92;2.33;;;;;;;21.33;47.40;95775.47;5059814;28;20040;-59
2022/12/05 01:57:12;;;;;;;3.22;2.30;;;;;;;21.07;47.38;95739.34;5067712;28;20036;-61
2022/12/05 01:59:39;;;;;;;3.20;2.25;;;;;;;21.27;46.85;95769.22;5084920;28;20519;-60
2022/12/05 02:02:04;;;;;;;3.30;2.40;;;;;;;21.35;46.79;95775.72;5075420;28;20127;-61
2022/12/05 02:04:30;;;;;;;3.70;2.70;;;;;;;21.30;46.86;95767.50;5057017;28;20066;-60
2022/12/05 02:06:56;;;;;;;3.28;2.20;;;;;;;20.37;46.80;95630.66;5026138;28;20067;-61
2022/12/05 02:09:21;;;;;;;3.10;2.38;;;;;;;21.32;46.94;95770.53;5059346;28;20542;-59
2022/12/05 02:11:56;;;;;;;3.35;2.30;;;;;;;21.33;46.68;95794.50;5077134;28;20047;-60
2022/12/05 02:14:40;;;;;;;3.72;2.50;;;;;;;21.34;46.99;95795.22;5071472;28;20039;-61
2022/12/05 02:17:18;;;;;;;3.92;2.30;;;;;;;20.59;46.92;95674.34;5072411;28;20035;-61
2022/12/05 02:19:58;;;;;;;2.92;2.13;;;;;;;21.34;46.79;95785.09;5074434;28;20132;-60
2022/12/05 02:22:33;;;;;;;3.47;2.55;;;;;;;21.31;46.90;95786.06;5051336;28;20028;-60
2022/12/05 02:25:22;;;;;;;3.05;2.33;;;;;;;21.31;46.90;95786.06;5077273;28;20490;-62
2022/12/05 02:28:08;;;;;;;3.00;2.30;;;;;;;21.29;46.86;95787.78;5062672;28;20523;-61
2022/12/05 02:30:42;;;;;;;3.13;2.30;;;;;;;21.29;46.83;95783.06;5096024;28;20044;-62
2022/12/05 02:33:25;;;;;;;3.85;2.50;;;;;;;21.29;46.85;95783.06;5067416;28;20445;-60
2022/12/05 02:36:09;;;;;;;2.90;2.22;;;;;;;21.30;46.75;95790.00;5086323;28;20039;-59
2022/12/05 02:38:41;;;;;;;3.15;2.17;;;;;;;21.29;46.88;95774.94;5082334;28;20141;-60
2022/12/05 02:41:28;;;;;;;3.78;2.45;;;;;;;21.29;47.04;95772.22;5083638;28;20141;-61
2022/12/05 02:44:06;;;;;;;2.90;2.00;;;;;;;21.29;46.58;95776.91;5072850;28;20139;-60
2022/12/05 02:46:33;;;;;;;3.42;2.50;;;;;;;21.06;46.55;95729.72;5042839;28;20060;-61
2022/12/05 02:49:07;;;;;;;3.53;2.63;;;;;;;21.27;46.72;95763.78;5045255;28;20036;-60
2022/12/05 02:51:35;;;;;;;3.03;2.28;;;;;;;21.27;46.92;95763.03;5047523;28;20061;-59
2022/12/05 02:54:03;;;;;;;3.00;2.20;;;;;;;21.27;46.90;95758.38;5066866;28;20094;-62
2022/12/05 02:56:29;;;;;;;3.42;2.53;;;;;;;21.02;46.74;95726.47;5061887;28;20065;-60
2022/12/05 02:58:54;;;;;;;3.53;2.47;;;;;;;21.27;46.88;95766.50;5081173;28;20075;-61
2022/12/05 03:01:22;;;;;;;3.42;2.35;;;;;;;21.26;46.68;95762.28;5051028;28;20032;-60
2022/12/05 03:03:47;;;;;;;3.65;2.47;;;;;;;20.65;46.63;95670.47;5060488;28;20122;-60
2022/12/05 03:06:33;;;;;;;2.63;2.08;;;;;;;21.17;46.67;95746.16;5069717;28;20131;-61
2022/12/05 03:09:24;;;;;;;3.40;2.25;;;;;;;20.73;46.71;95678.97;5051589;28;20088;-61
2022/12/05 03:12:09;;;;;;;3.20;2.30;;;;;;;21.24;46.93;95759.31;5046727;28;20055;-61
2022/12/05 03:14:41;;;;;;;3.55;2.30;;;;;;;20.78;46.58;95694.59;5051126;28;20052;-61
2022/12/05 03:17:09;;;;;;;3.45;2.55;;;;;;;21.08;46.59;95735.41;5065744;28;20123;-62
2022/12/05 03:19:49;;;;;;;3.88;2.78;;;;;;;21.24;47.00;95763.97;5048270;28;20174;-60
2022/12/05 03:22:40;;;;;;;3.70;2.50;;;;;;;21.01;47.14;95724.97;5082428;28;20438;-58
2022/12/05 03:25:06;;;;;;;3.30;2.25;;;;;;;21.24;46.38;95759.31;5061918;28;20040;-61
2022/12/05 03:27:45;;;;;;;3.08;2.33;;;;;;;19.80;46.69;95552.22;5083999;28;20097;-60
2022/12/05 03:30:21;;;;;;;3.33;2.28;;;;;;;20.83;46.71;95723.75;5073424;28;20043;-61
2022/12/05 03:33:04;;;;;;;3.33;2.30;;;;;;;20.93;46.66;95727.84;5078991;28;20090;-61
2022/12/05 03:35:34;;;;;;;3.50;2.30;;;;;;;;;;5066603;28;20083;-62
2022/12/05 03:38:12;;;;;;;3.20;2.25;;;;;;;21.23;46.55;95787.69;5096676;28;20036;-62
2022/12/05 03:40:40;;;;;;;3.20;2.47;;;;;;;20.70;46.55;95688.06;5065862;28;20024;-62
2022/12/05 03:43:30;;;;;;;2.97;2.00;;;;;;;20.85;46.56;95748.44;5067250;28;20381;-62
2022/12/05 03:46:16;;;;;;;3.17;2.22;;;;;;;21.20;46.86;95769.63;5090479;28;20068;-59
2022/12/05 03:48:56;;;;;;;3.40;2.47;;;;;;;21.20;46.78;95775.06;5097668;28;20039;-62
2022/12/05 03:51:24;;;;;;;2.97;2.10;;;;;;;20.43;46.41;95671.41;5087561;28;20483;-59
2022/12/05 03:54:01;;;;;;;3.42;2.50;;;;;;;21.19;46.51;95779.00;5053742;28;20075;-61
2022/12/05 03:56:30;;;;;;;3.10;2.47;;;;;;;21.20;46.51;95766.91;5037777;28;20039;-60
2022/12/05 03:59:31;;;;;;;3.23;1.97;;;;;;;21.17;46.44;95770.59;5043776;28;20071;-60
2022/12/05 04:01:57;;;;;;;3.00;2.30;;;;;;;21.19;46.26;95773.56;5087647;28;20031;-59
2022/12/05 04:04:29;;;;;;;3.13;2.25;;;;;;;21.10;46.45;95760.13;5066345;28;20032;-60
2022/12/05 04:06:55;;;;;;;3.40;2.40;;;;;;;21.03;46.54;95749.69;5043062;28;20044;-60
2022/12/05 04:09:24;;;;;;;3.05;2.30;;;;;;;20.46;46.49;95660.34;5051639;28;20526;-59
2022/12/05 04:11:53;;;;;;;2.83;2.10;;;;;;;21.05;46.13;95787.22;5071469;28;20137;-60
2022/12/05 04:14:24;;;;;;;3.95;2.67;;;;;;;21.07;46.45;95744.78;5070830;28;20051;-61
2022/12/05 04:17:04;;;;;;;3.47;2.58;;;;;;;20.76;46.34;95691.59;5039371;28;20115;-60
2022/12/05 04:22:23;;;;;;;3.45;2.40;;;;;;;21.17;46.40;95748.84;5078550;28;20059;-59
2022/12/05 04:27:36;;;;;;;3.58;2.47;;;;;;;20.38;46.54;95629.44;5059050;28;20042;-60
2022/12/05 04:30:05;;;;;;;3.33;2.00;;;;;;;21.14;46.30;95755.25;5070879;28;20113;-60
2022/12/05 04:32:43;;;;;;;3.58;2.70;;;;;;;21.15;46.26;95761.41;5093058;28;20089;-62
2022/12/05 04:35:22;;;;;;;3.20;2.38;;;;;;;21.14;46.23;95749.81;5096598;28;20044;-59
2022/12/05 04:37:48;;;;;;;3.30;2.33;;;;;;;21.14;46.69;95744.38;5072752;28;20030;-59
2022/12/05 04:40:28;;;;;;;2.97;2.40;;;;;;;20.43;46.50;95647.72;5094861;28;20102;-61
2022/12/05 04:42:53;;;;;;;3.97;2.42;;;;;;;21.14;46.42;95759.94;5064201;28;20213;-59
2022/12/05 04:45:20;;;;;;;3.63;2.58;;;;;;;21.15;46.53;95766.84;5040848;28;20747;-60
2022/12/05 04:47:48;;;;;;;3.38;2.30;;;;;;;20.98;46.45;95742.22;5055039;28;20042;-60
2022/12/05 04:50:14;;;;;;;4.00;2.53;;;;;;;21.14;46.18;95757.97;5069685;28;20066;-60
2022/12/05 04:52:39;;;;;;;3.13;2.33;;;;;;;21.10;46.04;95759.38;5097671;28;20113;-61
2022/12/05 04:55:05;;;;;;;3.55;2.28;;;;;;;21.11;46.44;95761.63;5098108;28;20091;-61
2022/12/05 04:57:33;;;;;;;3.40;2.30;;;;;;;21.12;45.92;95762.38;5073098;28;20032;-61
2022/12/05 04:59:59;;;;;;;3.90;2.70;;;;;;;20.93;46.21;95739.44;5082204;28;20498;-60
2022/12/05 05:02:28;;;;;;;3.38;2.30;;;;;;;21.12;45.98;95757.69;5052776;28;20050;-60
2022/12/05 05:04:54;;;;;;;3.63;2.55;;;;;;;21.23;45.86;95771.41;5049239;28;20036;-60
2022/12/05 05:07:20;;;;;;;2.85;1.95;;;;;;;21.16;45.91;95747.34;5053184;28;20396;-61
2022/12/05 05:09:45;;;;;;;2.92;2.00;;;;;;;21.45;45.70;95779.81;5057266;28;20052;-60
2022/12/05 05:12:11;;;;;;;3.88;2.08;;;;;;;20.91;45.45;95684.88;5072577;28;20051;-61
2022/12/05 05:14:36;;;;;;;3.20;2.15;;;;;;;21.66;44.94;95789.44;5064603;28;20498;-60
2022/12/05 05:17:02;;;;;;;4.25;2.15;;;;;;;21.79;44.88;95793.25;5081092;28;20154;-60
2022/12/05 05:19:27;;;;;;;3.05;2.10;;;;;;;21.92;44.75;95795.63;5054830;28;20092;-61
2022/12/05 05:21:52;;;;;;;3.00;2.25;;;;;;;22.00;44.42;95819.94;5056836;28;20123;-61
2022/12/05 05:24:20;;;;;;;2.85;1.95;;;;;;;21.91;44.30;95777.81;5074845;28;20515;-61
2022/12/05 05:26:46;;;;;;;3.22;2.17;;;;;;;21.95;44.20;95768.94;5039429;28;20040;-61
2022/12/05 05:29:11;;;;;;;3.13;2.22;;;;;;;22.12;44.09;95777.25;5055436;28;20196;-60
2022/12/05 05:31:37;;;;;;;2.78;2.00;;;;;;;22.27;43.71;95799.66;5057860;28;20029;-61
2022/12/05 05:34:03;;;;;;;3.53;2.33;;;;;;;22.40;43.82;95803.47;5048611;28;20045;-61
2022/12/05 05:36:28;;;;;;;2.65;1.98;;;;;;;22.31;43.85;95800.94;5061080;28;20036;-61
2022/12/05 05:38:56;;;;;;;3.20;2.08;;;;;;;22.39;43.37;95796.56;5043530;28;20058;-60
2022/12/05 05:41:22;;;;;;;3.75;2.60;;;;;;;21.82;43.34;95699.88;5026766;28;20036;-60
2022/12/05 05:43:48;;;;;;;2.95;2.03;;;;;;;22.48;43.45;95805.28;5079956;28;20146;-61
2022/12/05 05:46:14;;;;;;;3.38;2.20;;;;;;;22.38;43.57;95805.94;5075973;28;20550;-62
2022/12/05 05:48:39;;;;;;;2.65;2.00;;;;;;;22.21;43.33;95753.38;5081101;28;20135;-61
2022/12/05 05:51:06;;;;;;;2.88;1.98;;;;;;;22.70;42.92;95804.69;5054725;28;20721;-60
2022/12/05 05:53:32;;;;;;;3.20;2.00;;;;;;;22.54;42.70;95780.81;5034985;28;20036;-62
2022/12/05 05:56:02;;;;;;;3.40;1.95;;;;;;;22.06;42.90;95686.69;5067941;28;20066;-60
2022/12/05 05:58:27;;;;;;;;;;;;;;;22.90;42.44;95806.06;5052022;28;20032;-60
2022/12/05 06:00:52;;;;;;;2.85;2.05;;;;;;;22.90;42.50;95792.44;5083097;28;20430;-60
2022/12/05 06:03:18;;;;;;;3.33;2.00;;;;;;;23.23;42.27;95808.97;5085420;28;20031;-60
2022/12/05 06:05:43;;;;;;;3.30;2.10;;;;;;;22.56;41.61;95745.69;5105220;28;20043;-61
2022/12/05 06:08:09;;;;;;;3.42;1.90;;;;;;;22.53;42.85;95716.72;5084604;28;20036;-60
2022/12/05 06:10:36;;;;;;;2.95;1.98;;;;;;;22.84;42.02;95738.41;5067239;28;20040;-60
2022/12/05 06:13:02;;;;;;;3.22;1.75;;;;;;;22.04;42.40;95619.19;5068053;28;20025;-61
2022/12/05 06:15:27;;;;;;;4.03;1.92;;;;;;;23.63;42.20;95824.97;5067454;28;20093;-61
2022/12/05 06:17:53;;;;;;;3.17;2.25;;;;;;;23.36;42.30;95801.09;5084715;28;20610;-61
2022/12/05 06:20:18;;;;;;;4.07;2.00;;;;;;;23.45;43.24;95814.50;5051110;28;20500;-62
2022/12/05 06:22:44;;;;;;;2.92;2.15;;;;;;;23.62;43.20;95828.97;5056780;28;20232;-61
2022/12/05 06:25:09;;;;;;;4.65;2.30;;;;;;;23.88;43.20;95817.41;5058659;28;20036;-59
2022/12/05 06:27:35;;;;;;;3.33;2.30;;;;;;;23.73;44.29;95812.66;5063127;28;20229;-61
2022/12/05 06:30:00;;;;;;;3.40;2.00;;;;;;;23.03;45.65;95751.94;5036826;28;20044;-60
2022/12/05 06:32:26;;;;;;;3.33;1.95;;;;;;;23.65;45.84;95822.56;5080610;28;20180;-61
2022/12/05 06:34:52;;;;;;;3.42;2.20;;;;;;;23.63;44.91;95775.91;5056679;28;20119;-61
2022/12/05 06:37:17;;;;;;;3.53;2.33;;;;;;;23.80;43.83;95850.38;5048712;28;20106;-62
2022/12/05 06:39:43;;;;;;;4.15;2.40;;;;;;;23.52;44.31;95787.50;5032670;28;20435;-61
2022/12/05 06:42:08;;;;;;;3.25;2.13;;;;;;;23.61;45.81;95794.75;5070179;28;21132;-60
2022/12/05 06:44:34;;;;;;;3.50;1.92;;;;;;;23.62;45.68;95823.50;5040085;28;20045;-61
2022/12/05 06:46:59;;;;;;;3.78;2.20;;;;;;;23.55;45.22;95824.69;5063517;28;20096;-60
2022/12/05 06:49:31;;;;;;;4.60;2.50;;;;;;;23.75;44.49;95831.97;5052566;28;20547;-62
2022/12/05 06:51:56;;;;;;;9.63;2.55;;;;;;;23.86;43.65;95849.88;5032026;28;20071;-60
2022/12/05 06:54:22;;;;;;;5.65;2.40;;;;;;;23.69;44.59;95823.03;5022895;28;20509;-60
2022/12/05 06:56:47;;;;;;;5.00;2.70;;;;;;;23.20;43.87;95733.66;5030294;28;20048;-60
2022/12/05 06:59:13;;;;;;;8.77;2.72;;;;;;;24.03;43.09;95831.53;5016712;28;20037;-61
2022/12/05 07:01:39;;;;;;;10.27;3.03;;;;;;;24.10;42.56;95820.16;5029541;28;20033;-61
2022/12/05 07:04:24;;;;;;;14.45;2.92;;;;;;;23.99;43.34;95822.88;5034978;28;20078;-61
2022/12/05 07:06:50;;;;;;;9.48;2.67;;;;;;;24.44;42.19;95832.63;5040681;28;20532;-62
2022/12/05 07:09:17;;;;;;;10.27;2.53;;;;;;;23.37;42.04;95639.78;5003776;28;20091;-60
2022/12/05 07:11:45;;;;;;;14.68;2.90;;;;;;;24.42;42.00;95829.63;5018052;28;20361;-60
2022/12/05 07:14:11;;;;;;;15.02;3.25;;;;;;;24.25;42.03;95831.59;5040201;28;20045;-61
2022/12/05 07:16:36;;;;;;;10.50;3.13;;;;;;;23.38;42.92;95749.56;5032947;28;20301;-61
2022/12/05 07:19:02;;;;;;;10.95;2.90;;;;;;;23.95;42.58;95816.19;5065463;28;20043;-62
2022/12/05 07:21:28;;;;;;;7.80;2.92;;;;;;;24.06;42.37;95830.56;5068200;28;20036;-61
2022/12/05 07:23:54;;;;;;;11.95;3.50;;;;;;;24.41;41.52;95822.72;5048167;28;20041;-61
2022/12/05 07:26:21;;;;;;;7.57;2.92;;;;;;;24.62;41.32;95837.56;5041178;28;20572;-61
2022/12/05 07:28:47;;;;;;;11.05;3.35;;;;;;;24.67;41.14;95845.03;5041757;23;20148;-75
2022/12/05 07:31:15;;;;;;;10.35;3.25;;;;;;;24.41;41.81;95812.50;5030416;28;20036;-74
2022/12/05 07:33:40;;;;;;;9.73;3.00;;;;;;;24.54;41.45;95847.50;5047220;28;20123;-74
2022/12/05 07:36:17;;;;;;;11.75;3.25;;;;;;;24.50;41.70;95847.75;5066424;28;20507;-74
2022/12/05 07:38:43;;;;;;;14.48;3.13;;;;;;;24.42;41.57;95840.56;5066091;28;20032;-74
2022/12/05 07:41:10;;;;;;;10.10;3.30;;;;;;;23.59;41.86;95731.78;5047472;28;20045;-75
2022/12/05 07:43:35;;;;;;;9.18;3.00;;;;;;;24.27;41.63;95840.00;5030633;28;20020;-74
2022/12/05 07:46:03;;;;;;;7.68;2.67;;;;;;;24.34;41.84;95864.13;5052049;28;20491;-75
2022/12/05 07:48:28;;;;;;;10.60;3.20;;;;;;;24.28;41.57;95846.97;5072887;28;20534;-73
2022/12/05 07:50:54;;;;;;;11.57;3.20;;;;;;;24.36;41.76;95848.00;5050938;28;20048;-75
2022/12/05 07:53:19;;;;;;;12.35;2.67;;;;;;;24.31;41.91;95854.19;5051753;28;20501;-74
2022/12/05 07:55:44;;;;;;;10.65;3.15;;;;;;;24.29;41.61;95848.47;5067859;28;20515;-75
2022/12/05 08:00:45;;;;;;;10.77;3.47;;;;;;;22.25;41.50;95563.44;605845;22;20467;-64
2022/12/05 08:03:11;;;;;;;7.97;2.92;;;;;;;24.01;42.01;95828.56;5068049;28;20431;-63
2022/12/05 08:05:37;;;;;;;13.98;3.78;;;;;;;24.07;41.96;95859.34;5093247;22;20056;-62
2022/12/05 08:08:02;;;;;;;9.82;2.90;;;;;;;24.09;41.73;95840.50;5052544;28;20041;-61
2022/12/05 08:10:28;;;;;;;10.43;3.60;;;;;;;23.85;41.74;95819.63;5096180;22;21176;-62
2022/12/05 08:12:53;;;;;;;9.60;2.90;;;;;;;23.96;41.66;95845.69;5060528;23;20061;-77
2022/12/05 08:15:19;;;;;;;13.15;3.20;;;;;;;23.63;42.28;95824.97;5059559;28;20663;-77
2022/12/05 08:17:44;;;;;;;7.20;3.20;;;;;;;23.88;41.76;95858.31;5044304;28;20044;-78
2022/12/05 08:20:10;;;;;;;12.43;3.33;;;;;;;23.24;41.79;95755.94;5066613;28;20123;-78
2022/12/05 08:22:35;;;;;;;11.88;3.42;;;;;;;23.73;41.96;95834.47;5057365;28;20027;-77
2022/12/05 08:25:01;;;;;;;6.15;2.83;;;;;;;23.81;42.12;95840.94;5067305;28;20032;-77
2022/12/05 08:27:26;;;;;;;8.80;2.90;;;;;;;23.54;41.60;95785.06;5057448;28;20040;-78
2022/12/05 08:29:53;;;;;;;9.55;3.38;;;;;;;23.74;42.02;95846.88;5067220;22;20535;-61
2022/12/05 08:32:18;;;;;;;13.50;3.58;;;;;;;23.05;41.89;95741.28;5050286;28;20098;-60
2022/12/05 08:34:44;;;;;;;12.50;3.30;;;;;;;23.71;42.18;95842.41;5046663;28;20448;-59
2022/12/05 08:37:09;;;;;;;7.75;3.20;;;;;;;23.72;41.85;95843.88;5049139;28;20020;-59
2022/12/05 08:39:35;;;;;;;9.82;3.60;;;;;;;23.48;41.81;95813.53;5047368;28;20044;-63
2022/12/05 08:42:01;;;;;;;7.90;3.00;;;;;;;23.74;41.90;95852.34;5046362;28;20060;-60
2022/12/05 08:44:26;;;;;;;10.10;3.40;;;;;;;23.76;41.95;95856.03;5066107;28;20531;-60
2022/12/05 08:46:52;;;;;;;8.70;3.20;;;;;;;23.76;42.22;95860.75;5031479;28;20167;-62
2022/12/05 08:49:18;;;;;;;9.48;3.30;;;;;;;23.68;42.13;95844.13;5066399;28;20036;-60
2022/12/05 08:51:43;;;;;;;10.40;3.40;;;;;;;23.73;41.99;95846.13;5065188;28;20041;-61
2022/12/05 08:54:09;;;;;;;8.63;3.53;;;;;;;23.76;41.86;95842.41;5065455;28;20052;-62
2022/12/05 08:56:34;;;;;;;10.65;3.25;;;;;;;23.37;42.09;95797.13;5065012;28;20135;-60
2022/12/05 08:59:03;;;;;;;10.15;3.20;;;;;;;23.65;42.19;95841.63;5048786;28;20040;-58
2022/12/05 09:01:32;;;;;;;8.52;3.22;;;;;;;23.50;42.14;95822.72;5031839;28;20486;-57
2022/12/05 09:03:59;;;;;;;10.70;3.42;;;;;;;23.61;42.52;95841.09;5048062;28;20060;-58
2022/12/05 09:06:24;;;;;;;11.75;3.42;;;;;;;23.63;42.18;95849.50;5033400;28;20052;-59
2022/12/05 09:08:55;;;;;;;12.82;3.72;;;;;;;23.63;42.40;95846.78;5071536;28;20040;-59
2022/12/05 09:11:22;;;;;;;8.27;3.45;;;;;;;23.64;41.73;95842.88;5043678;28;20044;-59
2022/12/05 09:13:48;;;;;;;10.60;3.30;;;;;;;23.62;42.05;95845.31;5038135;28;20142;-61
2022/12/05 09:16:22;;;;;;;7.50;2.92;;;;;;;23.54;42.09;95836.09;5045292;28;20020;-58
2022/12/05 09:18:48;;;;;;;6.80;3.05;;;;;;;23.60;42.24;95836.88;5017535;28;20055;-57
2022/12/05 09:21:16;;;;;;;5.78;3.30;;;;;;;23.59;41.79;95840.84;5033064;28;20127;-59
2022/12/05 09:23:41;;;;;;;8.32;3.22;;;;;;;22.31;41.66;95654.00;5031597;28;20539;-57
2022/12/05 09:26:08;;;;;;;10.30;3.60;;;;;;;23.55;41.70;95853.97;5065869;28;20082;-59
2022/12/05 09:28:34;;;;;;;7.68;3.47;;;;;;;23.55;41.83;95824.69;5047479;28;20031;-59
2022/12/05 09:31:07;;;;;;;8.02;3.15;;;;;;;23.56;41.80;95828.19;5066866;28;20132;-57
2022/12/05 09:33:33;;;;;;;5.35;3.15;;;;;;;22.49;41.51;95659.06;5031687;28;20043;-59
2022/12/05 09:36:06;;;;;;;7.47;3.30;;;;;;;23.55;41.54;95830.16;5050679;28;20269;-58
2022/12/05 09:38:32;;;;;;;8.20;3.25;;;;;;;23.56;41.89;95825.47;5065690;28;20102;-59
2022/12/05 09:44:21;;;;;;;7.30;3.08;;;;;;;22.58;41.44;95673.19;5066503;28;20126;-59
2022/12/05 09:47:01;;;;;;;8.25;3.20;;;;;;;23.39;41.97;95800.88;5048158;28;20108;-59
2022/12/05 09:49:27;;;;;;;7.28;3.08;;;;;;;23.50;41.45;95811.06;5052977;28;20838;-60
2022/12/05 09:51:52;;;;;;;5.82;2.92;;;;;;;23.50;41.92;95811.06;5065968;28;20044;-59
2022/12/05 09:54:18;;;;;;;6.10;3.05;;;;;;;23.54;41.95;95817.00;5066101;28;20043;-60
2022/12/05 09:56:43;;;;;;;6.45;2.88;;;;;;;23.57;41.92;95810.56;5065689;28;20427;-61
2022/12/05 09:59:14;;;;;;;7.38;3.13;;;;;;;23.68;41.79;95805.22;5044908;28;20118;-63
2022/12/05 10:01:48;;;;;;;6.53;3.00;;;;;;;23.68;41.92;95807.94;5033036;28;20367;-60
2022/12/05 10:04:17;;;;;;;6.47;2.92;;;;;;;23.84;42.00;95801.75;5046752;28;20063;-60
2022/12/05 10:06:49;;;;;;;6.53;3.00;;;;;;;23.90;41.76;95805.97;5037579;28;20048;-60
2022/12/05 10:09:17;;;;;;;8.10;2.88;;;;;;;23.80;41.69;95774.72;5031259;28;20280;-61
2022/12/05 10:11:56;;;;;;;6.03;2.53;;;;;;;23.85;41.20;95781.44;5078948;28;20119;-60
2022/12/05 10:14:27;;;;;;;6.10;2.80;;;;;;;24.17;41.46;95803.31;5053953;28;20044;-61
2022/12/05 10:16:58;;;;;;;6.43;2.60;;;;;;;24.18;41.36;95791.13;5070282;28;20051;-59
2022/12/05 10:19:30;;;;;;;5.45;2.45;;;;;;;24.11;41.19;95771.78;5038564;28;20063;-61
2022/12/05 10:21:59;;;;;;;6.53;2.70;;;;;;;24.20;41.29;95791.41;5022733;28;20072;-60
2022/12/05 10:24:36;;;;;;;5.40;2.55;;;;;;;24.19;41.10;95789.91;5028790;28;20412;-60
2022/12/05 10:27:07;;;;;;;6.35;2.78;;;;;;;24.11;40.65;95761.63;5030539;28;20432;-61
2022/12/05 10:29:44;;;;;;;4.63;2.60;;;;;;;24.45;40.71;95795.88;5030521;28;20041;-63
2022/12/05 10:32:10;;;;;;;4.93;2.53;;;;;;;24.36;40.99;95791.44;5047234;28;20362;-59
2022/12/05 10:34:41;;;;;;;4.45;2.67;;;;;;;24.31;40.83;95807.78;5064652;28;20031;-61
2022/12/05 10:37:15;;;;;;;4.32;2.50;;;;;;;24.37;40.97;95789.44;5030927;28;20040;-74
2022/12/05 10:39:41;;;;;;;16.00;3.45;;;;;;;24.33;40.59;95756.16;5028668;28;20048;-62
2022/12/05 10:42:11;;;;;;;13.63;3.13;;;;;;;23.72;40.51;95663.88;5042167;28;20044;-64
2022/12/05 10:44:36;;;;;;;;;;;;;;;24.63;40.85;95787.91;5031124;28;20101;-61
2022/12/05 10:47:02;;;;;;;6.83;2.93;;;;;;;24.62;40.72;95777.47;5046384;28;20019;-62
2022/12/05 10:49:27;;;;;;;6.53;2.53;;;;;;;24.86;40.11;95776.44;5064880;28;20820;-62
2022/12/05 10:51:52;;;;;;;7.25;2.70;;;;;;;24.88;40.10;95765.75;5046200;28;20544;-61
2022/12/05 10:54:23;;;;;;;6.97;3.15;;;;;;;24.95;39.87;95778.91;5040679;28;20563;-61
2022/12/05 10:56:50;;;;;;;7.30;2.58;;;;;;;24.81;40.14;95770.25;5011429;28;20508;-61
2022/12/05 10:59:20;;;;;;;9.02;3.20;;;;;;;24.58;40.26;95760.63;5027145;28;20555;-60
2022/12/05 11:01:50;;;;;;;10.13;2.80;;;;;;;24.13;40.23;95632.88;5012971;28;20082;-60
2022/12/05 11:04:27;;;;;;;4.80;2.60;;;;;;;24.72;40.06;95727.56;5012994;28;20032;-62
2022/12/05 11:06:55;;;;;;;7.25;3.10;;;;;;;24.94;40.13;95761.03;5009894;28;20136;-61
2022/12/05 11:09:31;;;;;;;4.70;2.60;;;;;;;24.67;40.54;95746.69;5040588;28;20048;-60
2022/12/05 11:12:00;;;;;;;7.55;2.97;;;;;;;24.84;40.72;95768.03;5027108;28;20563;-62
2022/12/05 11:14:26;;;;;;;5.07;2.50;;;;;;;24.85;40.45;95764.03;5036913;28;20051;-64
2022/12/05 11:16:56;;;;;;;4.07;2.30;;;;;;;24.81;40.21;95762.06;5044604;28;20040;-60
2022/12/05 11:19:21;;;;;;;;;;;;;;;24.80;40.54;95760.56;5026713;28;20433;-60
2022/12/05 11:21:47;;;;;;;5.53;2.60;;;;;;;24.89;40.39;95747.41;5063439;28;20009;-60
2022/12/05 11:24:27;;;;;;;6.07;2.30;;;;;;;24.83;40.66;95750.13;5027210;28;20402;-60
2022/12/05 11:26:53;;;;;;;7.60;3.28;;;;;;;24.87;40.15;95750.63;5040899;28;20488;-59
2022/12/05 11:29:36;;;;;;;6.78;2.28;;;;;;;25.03;40.41;95740.91;5043833;28;20149;-59
2022/12/05 11:32:07;;;;;;;6.53;2.58;;;;;;;25.44;39.01;95739.72;5026742;28;20059;-60
2022/12/05 11:34:42;;;;;;;4.00;2.30;;;;;;;24.66;39.59;95628.50;5040267;28;20539;-60
2022/12/05 11:37:19;;;;;;;5.15;2.33;;;;;;;24.81;39.06;95650.06;5012895;28;20459;-60
2022/12/05 11:39:44;;;;;;;4.75;2.80;;;;;;;25.56;38.96;95713.78;5012376;28;20052;-62
2022/12/05 11:42:18;;;;;;;5.13;2.42;;;;;;;25.46;39.47;95739.97;5052281;28;20197;-61
2022/12/05 11:45:12;;;;;;;5.65;2.78;;;;;;;24.53;39.12;95597.53;5026660;28;20106;-60
2022/12/05 11:48:06;;;;;;;5.22;2.60;;;;;;;25.31;39.34;95716.94;5061302;28;20139;-61
2022/12/05 11:50:35;;;;;;;5.80;2.65;;;;;;;25.27;39.04;95711.72;5048956;28;20055;-60
2022/12/05 11:53:00;;;;;;;6.28;2.58;;;;;;;25.17;39.12;95712.53;5046934;28;20123;-59